Terminal Aerodrome Forecast
Issued by NWS

Home | Current Version | Previous Version | Graphics & Text | Print | Product List | Glossary Off
Versions: 1 2 3 4 5 6 7 8 9 10 11 12

000
FTUS45 KGGW 200520
TAFGDV
TAF
KGDV 200520Z 2006/2106 23011KT P6SM SCT140
     FM201000 23011KT P6SM SCT150 WS020/27035KT
     FM201400 24014KT P6SM BKN110 WS020/28040KT
     FM201600 25016G24KT P6SM BKN130
     FM201900 29022G32KT P6SM BKN110
     FM202300 32016G24KT P6SM BKN080=

USA.gov is the U.S. government's official web portal to all federal, state and local government web resources and services.